sensor_id;sensor_type;location;lat;lon;timestamp;temperature;humidity
50570;DHT22;36525;49.398;7.614;2023-01-16T00:01:57;4.50;99.90
50570;DHT22;36525;49.398;7.614;2023-01-16T00:04:25;4.50;99.90
50570;DHT22;36525;49.398;7.614;2023-01-16T00:06:52;4.40;99.90
50570;DHT22;36525;49.398;7.614;2023-01-16T00:09:20;4.40;99.90
50570;DHT22;36525;49.398;7.614;2023-01-16T00:11:47;4.30;99.90
50570;DHT22;36525;49.398;7.614;2023-01-16T00:14:14;4.30;99.90
50570;DHT22;36525;49.398;7.614;2023-01-16T00:16:41;4.30;99.90
50570;DHT22;36525;49.398;7.614;2023-01-16T00:19:08;4.20;99.90
50570;DHT22;36525;49.398;7.614;2023-01-16T00:21:35;4.20;99.90
50570;DHT22;36525;49.398;7.614;2023-01-16T00:24:02;4.20;99.90
50570;DHT22;36525;49.398;7.614;2023-01-16T00:26:32;4.10;99.90
50570;DHT22;36525;49.398;7.614;2023-01-16T00:29:00;4.10;99.90
50570;DHT22;36525;49.398;7.614;2023-01-16T00:31:28;4.10;99.90
50570;DHT22;36525;49.398;7.614;2023-01-16T00:33:55;4.10;99.90
50570;DHT22;36525;49.398;7.614;2023-01-16T00:36:22;4.10;99.90
50570;DHT22;36525;49.398;7.614;2023-01-16T00:38:49;4.00;99.90
50570;DHT22;36525;49.398;7.614;2023-01-16T00:41:16;3.80;99.90
50570;DHT22;36525;49.398;7.614;2023-01-16T00:43:44;3.70;99.90
50570;DHT22;36525;49.398;7.614;2023-01-16T00:46:11;3.50;99.90
50570;DHT22;36525;49.398;7.614;2023-01-16T00:48:38;3.50;99.90
50570;DHT22;36525;49.398;7.614;2023-01-16T00:51:05;3.40;99.90
50570;DHT22;36525;49.398;7.614;2023-01-16T00:53:32;3.50;99.90
50570;DHT22;36525;49.398;7.614;2023-01-16T00:55:59;3.50;99.90
50570;DHT22;36525;49.398;7.614;2023-01-16T00:58:26;3.50;99.90
50570;DHT22;36525;49.398;7.614;2023-01-16T01:00:53;3.50;99.90
50570;DHT22;36525;49.398;7.614;2023-01-16T01:03:20;3.50;99.90
50570;DHT22;36525;49.398;7.614;2023-01-16T01:05:47;3.60;99.90
50570;DHT22;36525;49.398;7.614;2023-01-16T01:08:14;3.60;99.90
50570;DHT22;36525;49.398;7.614;2023-01-16T01:10:41;3.50;99.90
50570;DHT22;36525;49.398;7.614;2023-01-16T01:13:08;3.50;99.90
50570;DHT22;36525;49.398;7.614;2023-01-16T01:15:35;3.60;99.90
50570;DHT22;36525;49.398;7.614;2023-01-16T01:18:03;3.50;99.90
50570;DHT22;36525;49.398;7.614;2023-01-16T01:20:30;3.60;99.90
50570;DHT22;36525;49.398;7.614;2023-01-16T01:22:58;3.50;99.90
50570;DHT22;36525;49.398;7.614;2023-01-16T01:25:25;3.50;99.90
50570;DHT22;36525;49.398;7.614;2023-01-16T01:27:54;3.60;99.90
50570;DHT22;36525;49.398;7.614;2023-01-16T01:30:21;3.50;99.90
50570;DHT22;36525;49.398;7.614;2023-01-16T01:32:48;3.50;99.90
50570;DHT22;36525;49.398;7.614;2023-01-16T01:35:15;3.50;99.90
50570;DHT22;36525;49.398;7.614;2023-01-16T01:37:44;3.60;99.90
50570;DHT22;36525;49.398;7.614;2023-01-16T01:40:11;3.60;99.90
50570;DHT22;36525;49.398;7.614;2023-01-16T01:42:39;3.60;99.90
50570;DHT22;36525;49.398;7.614;2023-01-16T01:51:22;3.70;99.90
50570;DHT22;36525;49.398;7.614;2023-01-16T01:53:53;3.70;99.90
50570;DHT22;36525;49.398;7.614;2023-01-16T01:56:32;3.80;99.90
50570;DHT22;36525;49.398;7.614;2023-01-16T01:59:07;3.80;99.90
50570;DHT22;36525;49.398;7.614;2023-01-16T02:01:37;3.80;99.90
50570;DHT22;36525;49.398;7.614;2023-01-16T02:04:15;3.90;99.90
50570;DHT22;36525;49.398;7.614;2023-01-16T02:06:50;3.80;99.90
50570;DHT22;36525;49.398;7.614;2023-01-16T02:09:20;3.90;99.90
50570;DHT22;36525;49.398;7.614;2023-01-16T02:11:57;3.90;99.90
50570;DHT22;36525;49.398;7.614;2023-01-16T02:14:29;3.80;99.90
50570;DHT22;36525;49.398;7.614;2023-01-16T02:17:16;3.90;99.90
50570;DHT22;36525;49.398;7.614;2023-01-16T02:32:32;3.90;99.90
50570;DHT22;36525;49.398;7.614;2023-01-16T02:35:54;3.90;99.90
50570;DHT22;36525;49.398;7.614;2023-01-16T02:44:24;3.90;99.90
50570;DHT22;36525;49.398;7.614;2023-01-16T02:55:53;4.00;99.90
50570;DHT22;36525;49.398;7.614;2023-01-16T02:58:21;4.00;99.90
50570;DHT22;36525;49.398;7.614;2023-01-16T03:00:50;4.00;99.90
50570;DHT22;36525;49.398;7.614;2023-01-16T03:06:55;4.10;99.90
50570;DHT22;36525;49.398;7.614;2023-01-16T03:12:42;4.10;99.90
50570;DHT22;36525;49.398;7.614;2023-01-16T03:15:11;4.10;99.90
50570;DHT22;36525;49.398;7.614;2023-01-16T03:32:23;4.10;99.90
50570;DHT22;36525;49.398;7.614;2023-01-16T03:35:03;4.20;99.90
50570;DHT22;36525;49.398;7.614;2023-01-16T03:37:57;4.20;99.90
50570;DHT22;36525;49.398;7.614;2023-01-16T03:40:33;4.10;99.90
50570;DHT22;36525;49.398;7.614;2023-01-16T03:43:07;4.20;99.90
50570;DHT22;36525;49.398;7.614;2023-01-16T03:46:12;4.10;99.90
50570;DHT22;36525;49.398;7.614;2023-01-16T03:49:10;4.10;99.90
50570;DHT22;36525;49.398;7.614;2023-01-16T03:51:44;4.20;99.90
50570;DHT22;36525;49.398;7.614;2023-01-16T03:59:45;4.20;99.90
50570;DHT22;36525;49.398;7.614;2023-01-16T04:02:18;4.10;99.90
50570;DHT22;36525;49.398;7.614;2023-01-16T04:04:53;4.10;99.90
50570;DHT22;36525;49.398;7.614;2023-01-16T04:07:31;4.10;99.90
50570;DHT22;36525;49.398;7.614;2023-01-16T04:10:06;4.10;99.90
50570;DHT22;36525;49.398;7.614;2023-01-16T04:12:50;4.10;99.90
50570;DHT22;36525;49.398;7.614;2023-01-16T04:15:21;4.20;99.90
50570;DHT22;36525;49.398;7.614;2023-01-16T04:17:51;4.20;99.90
50570;DHT22;36525;49.398;7.614;2023-01-16T04:20:18;4.10;99.90
50570;DHT22;36525;49.398;7.614;2023-01-16T04:22:49;4.10;99.90
50570;DHT22;36525;49.398;7.614;2023-01-16T04:25:17;4.10;99.90
50570;DHT22;36525;49.398;7.614;2023-01-16T04:27:45;4.10;99.90
50570;DHT22;36525;49.398;7.614;2023-01-16T04:30:13;4.00;99.90
50570;DHT22;36525;49.398;7.614;2023-01-16T04:32:42;4.00;99.90
50570;DHT22;36525;49.398;7.614;2023-01-16T04:35:10;4.10;99.90
50570;DHT22;36525;49.398;7.614;2023-01-16T04:37:37;4.10;99.90
50570;DHT22;36525;49.398;7.614;2023-01-16T04:40:05;4.10;99.90
50570;DHT22;36525;49.398;7.614;2023-01-16T04:42:35;4.10;99.90
50570;DHT22;36525;49.398;7.614;2023-01-16T04:45:03;4.10;99.90
50570;DHT22;36525;49.398;7.614;2023-01-16T04:47:30;4.10;99.90
50570;DHT22;36525;49.398;7.614;2023-01-16T04:49:57;4.00;99.90
50570;DHT22;36525;49.398;7.614;2023-01-16T04:52:24;4.00;99.90
50570;DHT22;36525;49.398;7.614;2023-01-16T04:54:51;3.80;99.90
50570;DHT22;36525;49.398;7.614;2023-01-16T04:57:18;3.70;99.90
50570;DHT22;36525;49.398;7.614;2023-01-16T04:59:45;3.60;99.90
50570;DHT22;36525;49.398;7.614;2023-01-16T05:02:12;3.60;99.90
50570;DHT22;36525;49.398;7.614;2023-01-16T05:04:39;3.50;99.90
50570;DHT22;36525;49.398;7.614;2023-01-16T05:07:06;3.50;99.90
50570;DHT22;36525;49.398;7.614;2023-01-16T05:09:33;3.50;99.90
50570;DHT22;36525;49.398;7.614;2023-01-16T05:12:00;3.40;99.90
50570;DHT22;36525;49.398;7.614;2023-01-16T05:14:29;3.30;99.90
50570;DHT22;36525;49.398;7.614;2023-01-16T05:16:56;3.30;99.90
50570;DHT22;36525;49.398;7.614;2023-01-16T05:19:23;3.30;99.90
50570;DHT22;36525;49.398;7.614;2023-01-16T05:21:49;3.30;99.90
50570;DHT22;36525;49.398;7.614;2023-01-16T05:24:16;3.30;99.90
50570;DHT22;36525;49.398;7.614;2023-01-16T05:26:43;3.30;99.90
50570;DHT22;36525;49.398;7.614;2023-01-16T05:29:10;3.30;99.90
50570;DHT22;36525;49.398;7.614;2023-01-16T05:31:38;3.20;99.90
50570;DHT22;36525;49.398;7.614;2023-01-16T05:34:05;3.20;99.90
50570;DHT22;36525;49.398;7.614;2023-01-16T05:36:32;3.20;99.90
50570;DHT22;36525;49.398;7.614;2023-01-16T05:38:59;3.20;99.90
50570;DHT22;36525;49.398;7.614;2023-01-16T05:41:26;3.20;99.90
50570;DHT22;36525;49.398;7.614;2023-01-16T05:43:52;3.20;99.90
50570;DHT22;36525;49.398;7.614;2023-01-16T05:46:20;3.20;99.90
50570;DHT22;36525;49.398;7.614;2023-01-16T05:48:47;3.20;99.90
50570;DHT22;36525;49.398;7.614;2023-01-16T05:51:14;3.10;99.90
50570;DHT22;36525;49.398;7.614;2023-01-16T05:53:41;3.10;99.90
50570;DHT22;36525;49.398;7.614;2023-01-16T05:56:10;3.10;99.90
50570;DHT22;36525;49.398;7.614;2023-01-16T05:58:37;3.00;99.90
50570;DHT22;36525;49.398;7.614;2023-01-16T06:01:05;3.00;99.90
50570;DHT22;36525;49.398;7.614;2023-01-16T06:03:32;3.10;99.90
50570;DHT22;36525;49.398;7.614;2023-01-16T06:05:59;3.10;99.90
50570;DHT22;36525;49.398;7.614;2023-01-16T06:08:27;3.00;99.90
50570;DHT22;36525;49.398;7.614;2023-01-16T06:10:56;3.00;99.90
50570;DHT22;36525;49.398;7.614;2023-01-16T06:13:23;3.00;99.90
50570;DHT22;36525;49.398;7.614;2023-01-16T06:15:50;3.00;99.90
50570;DHT22;36525;49.398;7.614;2023-01-16T06:18:17;3.00;99.90
50570;DHT22;36525;49.398;7.614;2023-01-16T06:20:44;3.00;99.90
50570;DHT22;36525;49.398;7.614;2023-01-16T06:23:11;2.90;99.90
50570;DHT22;36525;49.398;7.614;2023-01-16T06:25:38;2.90;99.90
50570;DHT22;36525;49.398;7.614;2023-01-16T06:28:05;2.90;99.90
50570;DHT22;36525;49.398;7.614;2023-01-16T06:30:32;2.80;99.90
50570;DHT22;36525;49.398;7.614;2023-01-16T06:32:59;2.80;99.90
50570;DHT22;36525;49.398;7.614;2023-01-16T06:35:26;2.80;99.90
50570;DHT22;36525;49.398;7.614;2023-01-16T06:37:53;2.90;99.90
50570;DHT22;36525;49.398;7.614;2023-01-16T06:40:20;2.90;99.90
50570;DHT22;36525;49.398;7.614;2023-01-16T06:42:47;2.90;99.90
50570;DHT22;36525;49.398;7.614;2023-01-16T06:45:14;2.90;99.90
50570;DHT22;36525;49.398;7.614;2023-01-16T06:47:41;2.80;99.90
50570;DHT22;36525;49.398;7.614;2023-01-16T06:50:09;2.80;99.90
50570;DHT22;36525;49.398;7.614;2023-01-16T06:52:36;2.80;99.90
50570;DHT22;36525;49.398;7.614;2023-01-16T06:55:05;2.90;99.90
50570;DHT22;36525;49.398;7.614;2023-01-16T06:57:35;2.90;99.90
50570;DHT22;36525;49.398;7.614;2023-01-16T07:00:03;2.90;99.90
50570;DHT22;36525;49.398;7.614;2023-01-16T07:02:31;2.90;99.90
50570;DHT22;36525;49.398;7.614;2023-01-16T07:04:58;2.90;99.90
50570;DHT22;36525;49.398;7.614;2023-01-16T07:07:24;3.00;99.90
50570;DHT22;36525;49.398;7.614;2023-01-16T07:09:51;3.10;99.90
50570;DHT22;36525;49.398;7.614;2023-01-16T07:12:18;3.10;99.90
50570;DHT22;36525;49.398;7.614;2023-01-16T07:14:45;3.10;99.90
50570;DHT22;36525;49.398;7.614;2023-01-16T07:17:30;3.10;99.90
50570;DHT22;36525;49.398;7.614;2023-01-16T07:20:16;3.10;99.90
50570;DHT22;36525;49.398;7.614;2023-01-16T07:23:14;3.20;99.90
50570;DHT22;36525;49.398;7.614;2023-01-16T07:25:53;3.30;99.90
50570;DHT22;36525;49.398;7.614;2023-01-16T07:28:21;3.30;99.90
50570;DHT22;36525;49.398;7.614;2023-01-16T07:30:49;3.30;99.90
50570;DHT22;36525;49.398;7.614;2023-01-16T07:33:16;3.40;99.90
50570;DHT22;36525;49.398;7.614;2023-01-16T07:35:44;3.50;99.90
50570;DHT22;36525;49.398;7.614;2023-01-16T07:38:12;3.50;99.90
50570;DHT22;36525;49.398;7.614;2023-01-16T07:40:39;3.50;99.90
50570;DHT22;36525;49.398;7.614;2023-01-16T07:43:06;3.50;99.90
50570;DHT22;36525;49.398;7.614;2023-01-16T07:45:33;3.50;99.90
50570;DHT22;36525;49.398;7.614;2023-01-16T07:48:00;3.60;99.90
50570;DHT22;36525;49.398;7.614;2023-01-16T07:50:28;3.50;99.90
50570;DHT22;36525;49.398;7.614;2023-01-16T07:52:55;3.50;99.90
50570;DHT22;36525;49.398;7.614;2023-01-16T07:55:23;3.30;99.90
50570;DHT22;36525;49.398;7.614;2023-01-16T07:57:50;3.10;99.90
50570;DHT22;36525;49.398;7.614;2023-01-16T08:00:18;3.00;99.90
50570;DHT22;36525;49.398;7.614;2023-01-16T08:02:45;3.00;99.90
50570;DHT22;36525;49.398;7.614;2023-01-16T08:05:12;2.90;99.90
50570;DHT22;36525;49.398;7.614;2023-01-16T08:07:39;2.90;99.90
50570;DHT22;36525;49.398;7.614;2023-01-16T08:10:06;2.80;99.90
50570;DHT22;36525;49.398;7.614;2023-01-16T08:12:33;2.80;99.90
50570;DHT22;36525;49.398;7.614;2023-01-16T08:15:00;2.80;99.90
50570;DHT22;36525;49.398;7.614;2023-01-16T08:17:27;2.80;99.90
50570;DHT22;36525;49.398;7.614;2023-01-16T08:19:55;2.70;99.90
50570;DHT22;36525;49.398;7.614;2023-01-16T08:22:22;2.60;99.90
50570;DHT22;36525;49.398;7.614;2023-01-16T08:24:48;2.50;99.90
50570;DHT22;36525;49.398;7.614;2023-01-16T08:27:16;2.40;99.90
50570;DHT22;36525;49.398;7.614;2023-01-16T08:29:42;2.40;99.90
50570;DHT22;36525;49.398;7.614;2023-01-16T08:32:09;2.40;99.90
50570;DHT22;36525;49.398;7.614;2023-01-16T08:34:37;2.40;99.90
50570;DHT22;36525;49.398;7.614;2023-01-16T08:37:04;2.50;99.90
50570;DHT22;36525;49.398;7.614;2023-01-16T08:39:31;2.50;99.90
50570;DHT22;36525;49.398;7.614;2023-01-16T08:41:58;2.50;99.90
50570;DHT22;36525;49.398;7.614;2023-01-16T08:44:43;2.60;99.90
50570;DHT22;36525;49.398;7.614;2023-01-16T08:47:28;2.60;99.90
50570;DHT22;36525;49.398;7.614;2023-01-16T08:50:16;2.60;99.90
50570;DHT22;36525;49.398;7.614;2023-01-16T08:53:03;2.50;99.90
50570;DHT22;36525;49.398;7.614;2023-01-16T08:55:31;2.60;99.90
50570;DHT22;36525;49.398;7.614;2023-01-16T08:57:58;2.60;99.90
50570;DHT22;36525;49.398;7.614;2023-01-16T09:00:27;2.60;99.90
50570;DHT22;36525;49.398;7.614;2023-01-16T09:02:55;2.70;99.90
50570;DHT22;36525;49.398;7.614;2023-01-16T09:05:25;2.70;99.90
50570;DHT22;36525;49.398;7.614;2023-01-16T09:07:53;2.70;99.90
50570;DHT22;36525;49.398;7.614;2023-01-16T09:10:21;2.70;99.90
50570;DHT22;36525;49.398;7.614;2023-01-16T09:12:48;2.70;99.90
50570;DHT22;36525;49.398;7.614;2023-01-16T09:15:33;2.60;99.90
50570;DHT22;36525;49.398;7.614;2023-01-16T09:18:00;2.60;99.90
50570;DHT22;36525;49.398;7.614;2023-01-16T09:20:27;2.60;99.90
50570;DHT22;36525;49.398;7.614;2023-01-16T09:23:00;2.70;99.90
50570;DHT22;36525;49.398;7.614;2023-01-16T09:25:29;2.70;99.90
50570;DHT22;36525;49.398;7.614;2023-01-16T09:27:57;2.80;99.90
50570;DHT22;36525;49.398;7.614;2023-01-16T09:30:25;2.80;99.90
50570;DHT22;36525;49.398;7.614;2023-01-16T09:32:53;2.90;99.90
50570;DHT22;36525;49.398;7.614;2023-01-16T09:35:20;2.90;99.90
50570;DHT22;36525;49.398;7.614;2023-01-16T09:37:47;3.00;99.90
50570;DHT22;36525;49.398;7.614;2023-01-16T09:40:17;3.00;99.90
50570;DHT22;36525;49.398;7.614;2023-01-16T09:42:53;3.00;99.90
50570;DHT22;36525;49.398;7.614;2023-01-16T09:45:45;3.00;99.90
50570;DHT22;36525;49.398;7.614;2023-01-16T09:48:25;3.10;99.90
50570;DHT22;36525;49.398;7.614;2023-01-16T09:50:56;3.10;99.90
50570;DHT22;36525;49.398;7.614;2023-01-16T09:53:49;3.10;99.90
50570;DHT22;36525;49.398;7.614;2023-01-16T09:56:46;3.10;99.90
50570;DHT22;36525;49.398;7.614;2023-01-16T09:59:37;3.20;99.90
50570;DHT22;36525;49.398;7.614;2023-01-16T10:04:34;3.30;99.90
50570;DHT22;36525;49.398;7.614;2023-01-16T10:07:11;3.30;99.90
50570;DHT22;36525;49.398;7.614;2023-01-16T10:19:47;3.70;99.90
50570;DHT22;36525;49.398;7.614;2023-01-16T10:31:05;4.10;99.90
50570;DHT22;36525;49.398;7.614;2023-01-16T10:34:02;4.10;99.90
50570;DHT22;36525;49.398;7.614;2023-01-16T10:36:46;4.10;99.90
50570;DHT22;36525;49.398;7.614;2023-01-16T10:39:17;4.20;99.90
50570;DHT22;36525;49.398;7.614;2023-01-16T10:41:50;4.20;99.90
50570;DHT22;36525;49.398;7.614;2023-01-16T10:47:51;4.40;99.90
50570;DHT22;36525;49.398;7.614;2023-01-16T10:50:37;4.40;99.90
50570;DHT22;36525;49.398;7.614;2023-01-16T10:53:06;4.50;99.90
50570;DHT22;36525;49.398;7.614;2023-01-16T11:09:03;5.00;99.90
50570;DHT22;36525;49.398;7.614;2023-01-16T11:11:36;5.00;99.90
50570;DHT22;36525;49.398;7.614;2023-01-16T11:14:34;5.00;99.90
50570;DHT22;36525;49.398;7.614;2023-01-16T11:17:27;5.00;99.90
50570;DHT22;36525;49.398;7.614;2023-01-16T11:23:17;5.00;99.90
50570;DHT22;36525;49.398;7.614;2023-01-16T11:25:48;5.10;99.90
50570;DHT22;36525;49.398;7.614;2023-01-16T11:28:21;5.10;99.90
50570;DHT22;36525;49.398;7.614;2023-01-16T11:30:53;5.10;99.90
50570;DHT22;36525;49.398;7.614;2023-01-16T11:33:25;5.10;99.90
50570;DHT22;36525;49.398;7.614;2023-01-16T11:35:58;5.10;99.90
50570;DHT22;36525;49.398;7.614;2023-01-16T11:38:31;5.10;99.90
50570;DHT22;36525;49.398;7.614;2023-01-16T11:41:01;5.10;99.90
50570;DHT22;36525;49.398;7.614;2023-01-16T11:43:30;5.10;99.90
50570;DHT22;36525;49.398;7.614;2023-01-16T11:46:46;5.10;99.90
50570;DHT22;36525;49.398;7.614;2023-01-16T11:49:18;5.10;99.90
50570;DHT22;36525;49.398;7.614;2023-01-16T11:51:54;5.10;99.90
50570;DHT22;36525;49.398;7.614;2023-01-16T11:54:26;5.10;99.90
50570;DHT22;36525;49.398;7.614;2023-01-16T12:11:58;5.00;99.90
50570;DHT22;36525;49.398;7.614;2023-01-16T12:15:04;4.90;99.90
50570;DHT22;36525;49.398;7.614;2023-01-16T12:17:51;4.90;99.90
50570;DHT22;36525;49.398;7.614;2023-01-16T12:20:37;4.80;99.90
50570;DHT22;36525;49.398;7.614;2023-01-16T12:26:23;4.80;99.90
50570;DHT22;36525;49.398;7.614;2023-01-16T12:31:36;4.70;99.90
50570;DHT22;36525;49.398;7.614;2023-01-16T12:34:37;4.60;99.90
50570;DHT22;36525;49.398;7.614;2023-01-16T12:40:38;4.40;99.90
50570;DHT22;36525;49.398;7.614;2023-01-16T12:43:34;4.40;99.90
50570;DHT22;36525;49.398;7.614;2023-01-16T12:46:16;4.40;99.90
50570;DHT22;36525;49.398;7.614;2023-01-16T12:49:02;4.30;99.90
50570;DHT22;36525;49.398;7.614;2023-01-16T12:55:34;4.20;99.90
50570;DHT22;36525;49.398;7.614;2023-01-16T12:58:19;4.10;99.90
50570;DHT22;36525;49.398;7.614;2023-01-16T13:03:32;4.00;99.90
50570;DHT22;36525;49.398;7.614;2023-01-16T13:06:10;3.90;99.90
50570;DHT22;36525;49.398;7.614;2023-01-16T13:08:46;4.00;99.90
50570;DHT22;36525;49.398;7.614;2023-01-16T13:11:31;4.00;99.90
50570;DHT22;36525;49.398;7.614;2023-01-16T13:14:31;4.00;99.90
50570;DHT22;36525;49.398;7.614;2023-01-16T13:17:07;4.00;99.90
50570;DHT22;36525;49.398;7.614;2023-01-16T13:19:40;4.00;99.90
50570;DHT22;36525;49.398;7.614;2023-01-16T13:22:34;4.00;99.90
50570;DHT22;36525;49.398;7.614;2023-01-16T13:25:32;4.00;99.90
50570;DHT22;36525;49.398;7.614;2023-01-16T13:33:56;4.10;99.90
50570;DHT22;36525;49.398;7.614;2023-01-16T13:42:17;4.20;99.90
50570;DHT22;36525;49.398;7.614;2023-01-16T13:44:50;4.30;99.90
50570;DHT22;36525;49.398;7.614;2023-01-16T13:47:39;4.30;99.90
50570;DHT22;36525;49.398;7.614;2023-01-16T13:52:46;4.30;99.90
50570;DHT22;36525;49.398;7.614;2023-01-16T13:55:35;4.30;99.90
50570;DHT22;36525;49.398;7.614;2023-01-16T13:58:20;4.30;99.90
50570;DHT22;36525;49.398;7.614;2023-01-16T14:00:59;4.20;99.90
50570;DHT22;36525;49.398;7.614;2023-01-16T14:03:32;4.20;99.90
50570;DHT22;36525;49.398;7.614;2023-01-16T14:06:21;4.10;99.90
50570;DHT22;36525;49.398;7.614;2023-01-16T14:09:13;4.10;99.90
50570;DHT22;36525;49.398;7.614;2023-01-16T14:12:01;4.10;99.90
50570;DHT22;36525;49.398;7.614;2023-01-16T14:20:43;3.90;99.90
50570;DHT22;36525;49.398;7.614;2023-01-16T14:26:18;4.10;99.90
50570;DHT22;36525;49.398;7.614;2023-01-16T14:28:48;4.10;99.90
50570;DHT22;36525;49.398;7.614;2023-01-16T14:31:26;4.10;99.90
50570;DHT22;36525;49.398;7.614;2023-01-16T14:34:01;4.10;99.90
50570;DHT22;36525;49.398;7.614;2023-01-16T14:36:33;4.20;99.90
50570;DHT22;36525;49.398;7.614;2023-01-16T14:39:01;4.20;99.90
50570;DHT22;36525;49.398;7.614;2023-01-16T14:41:30;4.10;99.90
50570;DHT22;36525;49.398;7.614;2023-01-16T14:44:20;4.10;99.90
50570;DHT22;36525;49.398;7.614;2023-01-16T14:47:10;4.10;99.90
50570;DHT22;36525;49.398;7.614;2023-01-16T14:50:06;4.10;99.90
50570;DHT22;36525;49.398;7.614;2023-01-16T14:53:18;4.00;99.90
50570;DHT22;36525;49.398;7.614;2023-01-16T14:56:26;4.10;99.90
50570;DHT22;36525;49.398;7.614;2023-01-16T14:58:58;4.00;99.90
50570;DHT22;36525;49.398;7.614;2023-01-16T15:01:45;4.00;99.90
50570;DHT22;36525;49.398;7.614;2023-01-16T15:04:44;4.00;99.90
50570;DHT22;36525;49.398;7.614;2023-01-16T15:07:16;4.00;99.90
50570;DHT22;36525;49.398;7.614;2023-01-16T15:09:47;4.00;99.90
50570;DHT22;36525;49.398;7.614;2023-01-16T15:12:17;4.10;99.90
50570;DHT22;36525;49.398;7.614;2023-01-16T15:14:55;4.00;99.90
50570;DHT22;36525;49.398;7.614;2023-01-16T15:17:39;4.00;99.90
50570;DHT22;36525;49.398;7.614;2023-01-16T15:20:27;3.90;99.90
50570;DHT22;36525;49.398;7.614;2023-01-16T15:23:36;3.90;99.90
50570;DHT22;36525;49.398;7.614;2023-01-16T15:31:13;3.80;99.90
50570;DHT22;36525;49.398;7.614;2023-01-16T15:33:42;3.70;99.90
50570;DHT22;36525;49.398;7.614;2023-01-16T15:36:19;3.70;99.90
50570;DHT22;36525;49.398;7.614;2023-01-16T15:38:49;3.70;99.90
50570;DHT22;36525;49.398;7.614;2023-01-16T15:41:24;3.80;99.90
50570;DHT22;36525;49.398;7.614;2023-01-16T15:44:18;3.80;99.90
50570;DHT22;36525;49.398;7.614;2023-01-16T15:50:30;3.60;99.90
50570;DHT22;36525;49.398;7.614;2023-01-16T15:53:04;3.50;99.90
50570;DHT22;36525;49.398;7.614;2023-01-16T15:55:52;3.60;99.90
50570;DHT22;36525;49.398;7.614;2023-01-16T15:58:25;3.60;99.90
50570;DHT22;36525;49.398;7.614;2023-01-16T16:01:04;3.60;99.90
50570;DHT22;36525;49.398;7.614;2023-01-16T16:03:44;3.50;99.90
50570;DHT22;36525;49.398;7.614;2023-01-16T16:06:14;3.40;99.90
50570;DHT22;36525;49.398;7.614;2023-01-16T16:08:46;3.50;99.90
50570;DHT22;36525;49.398;7.614;2023-01-16T16:11:18;3.50;99.90
50570;DHT22;36525;49.398;7.614;2023-01-16T16:14:04;3.50;99.90
50570;DHT22;36525;49.398;7.614;2023-01-16T16:20:30;3.50;99.90
50570;DHT22;36525;49.398;7.614;2023-01-16T16:26:01;3.40;99.90
50570;DHT22;36525;49.398;7.614;2023-01-16T16:28:33;3.40;99.90
50570;DHT22;36525;49.398;7.614;2023-01-16T16:31:08;3.30;99.90
50570;DHT22;36525;49.398;7.614;2023-01-16T16:33:41;3.20;99.90
50570;DHT22;36525;49.398;7.614;2023-01-16T16:36:14;3.10;99.90
50570;DHT22;36525;49.398;7.614;2023-01-16T16:38:46;3.10;99.90
50570;DHT22;36525;49.398;7.614;2023-01-16T16:43:56;3.00;99.90
50570;DHT22;36525;49.398;7.614;2023-01-16T16:48:52;3.00;99.90
50570;DHT22;36525;49.398;7.614;2023-01-16T16:51:30;3.00;99.90
50570;DHT22;36525;49.398;7.614;2023-01-16T16:54:09;3.00;99.90
50570;DHT22;36525;49.398;7.614;2023-01-16T16:56:47;3.00;99.90
50570;DHT22;36525;49.398;7.614;2023-01-16T16:59:27;3.00;99.90
50570;DHT22;36525;49.398;7.614;2023-01-16T17:01:58;3.00;99.90
50570;DHT22;36525;49.398;7.614;2023-01-16T17:04:30;3.10;99.90
50570;DHT22;36525;49.398;7.614;2023-01-16T17:06:57;3.10;99.90
50570;DHT22;36525;49.398;7.614;2023-01-16T17:09:25;3.10;99.90
50570;DHT22;36525;49.398;7.614;2023-01-16T17:11:57;3.00;99.90
50570;DHT22;36525;49.398;7.614;2023-01-16T17:14:26;3.00;99.90
50570;DHT22;36525;49.398;7.614;2023-01-16T17:16:53;3.00;99.90
50570;DHT22;36525;49.398;7.614;2023-01-16T17:19:29;2.90;99.90
50570;DHT22;36525;49.398;7.614;2023-01-16T17:21:57;2.90;99.90
50570;DHT22;36525;49.398;7.614;2023-01-16T17:24:24;2.90;99.90
50570;DHT22;36525;49.398;7.614;2023-01-16T17:26:51;2.90;99.90
50570;DHT22;36525;49.398;7.614;2023-01-16T17:29:18;2.80;99.90
50570;DHT22;36525;49.398;7.614;2023-01-16T17:31:46;2.70;99.90
50570;DHT22;36525;49.398;7.614;2023-01-16T17:34:15;2.70;99.90
50570;DHT22;36525;49.398;7.614;2023-01-16T17:36:43;2.60;99.90
50570;DHT22;36525;49.398;7.614;2023-01-16T17:39:13;2.50;99.90
50570;DHT22;36525;49.398;7.614;2023-01-16T17:41:41;2.50;99.90
50570;DHT22;36525;49.398;7.614;2023-01-16T17:44:17;2.30;99.90
50570;DHT22;36525;49.398;7.614;2023-01-16T17:47:05;2.30;99.90
50570;DHT22;36525;49.398;7.614;2023-01-16T17:49:33;2.10;99.90
50570;DHT22;36525;49.398;7.614;2023-01-16T17:52:24;2.00;99.90
50570;DHT22;36525;49.398;7.614;2023-01-16T17:54:51;1.80;99.90
50570;DHT22;36525;49.398;7.614;2023-01-16T17:57:37;1.70;99.90
50570;DHT22;36525;49.398;7.614;2023-01-16T18:00:04;1.60;99.90
50570;DHT22;36525;49.398;7.614;2023-01-16T18:02:32;1.50;99.90
50570;DHT22;36525;49.398;7.614;2023-01-16T18:05:00;1.40;99.90
50570;DHT22;36525;49.398;7.614;2023-01-16T18:07:27;1.40;99.90
50570;DHT22;36525;49.398;7.614;2023-01-16T18:09:54;1.40;99.90
50570;DHT22;36525;49.398;7.614;2023-01-16T18:12:21;1.30;99.90
50570;DHT22;36525;49.398;7.614;2023-01-16T18:15:21;1.40;99.90
50570;DHT22;36525;49.398;7.614;2023-01-16T18:18:06;1.40;99.90
50570;DHT22;36525;49.398;7.614;2023-01-16T18:20:38;1.30;99.90
50570;DHT22;36525;49.398;7.614;2023-01-16T18:23:06;1.30;99.90
50570;DHT22;36525;49.398;7.614;2023-01-16T18:25:33;1.40;99.90
50570;DHT22;36525;49.398;7.614;2023-01-16T18:28:00;1.40;99.90
50570;DHT22;36525;49.398;7.614;2023-01-16T18:30:27;1.40;99.90
50570;DHT22;36525;49.398;7.614;2023-01-16T18:32:54;1.50;99.90
50570;DHT22;36525;49.398;7.614;2023-01-16T18:35:21;1.60;99.90
50570;DHT22;36525;49.398;7.614;2023-01-16T18:37:50;1.70;99.90
50570;DHT22;36525;49.398;7.614;2023-01-16T18:40:36;1.70;99.90
50570;DHT22;36525;49.398;7.614;2023-01-16T18:43:21;1.80;99.90
50570;DHT22;36525;49.398;7.614;2023-01-16T18:46:15;1.80;99.90
50570;DHT22;36525;49.398;7.614;2023-01-16T18:49:01;1.90;99.90
50570;DHT22;36525;49.398;7.614;2023-01-16T18:51:47;2.10;99.90
50570;DHT22;36525;49.398;7.614;2023-01-16T18:54:33;2.20;99.90
50570;DHT22;36525;49.398;7.614;2023-01-16T18:57:23;2.30;99.90
50570;DHT22;36525;49.398;7.614;2023-01-16T19:00:14;2.30;99.90
50570;DHT22;36525;49.398;7.614;2023-01-16T19:03:01;2.40;99.90
50570;DHT22;36525;49.398;7.614;2023-01-16T19:05:28;2.50;99.90
50570;DHT22;36525;49.398;7.614;2023-01-16T19:08:00;2.50;99.90
50570;DHT22;36525;49.398;7.614;2023-01-16T19:10:32;2.50;99.90
50570;DHT22;36525;49.398;7.614;2023-01-16T19:13:01;2.50;99.90
50570;DHT22;36525;49.398;7.614;2023-01-16T19:15:32;2.50;99.90
50570;DHT22;36525;49.398;7.614;2023-01-16T19:18:01;2.60;99.90
50570;DHT22;36525;49.398;7.614;2023-01-16T19:20:29;2.60;99.90
50570;DHT22;36525;49.398;7.614;2023-01-16T19:22:56;2.60;99.90